Portada
METAR-TAF:

METAR-TAF

Aeroports :

Bratislava, Eslovàquia

latitud: 48-12N, longitud: 017-12E, altitud: 133 m

Observació

L'informe es va fer fa 28 minuts, a les 09:00 UTC
Vent 4 kt del Nord-Est, variant entre Nord/Nord-Oest i Est
Temperatura 29°C
Humitat 40%
Pressió 1016 hPa
Visibilitat 10 km o més
sense núvols per sota de 1500 mi sense presència de cumulonimbus.

METAR: LZIB 190900Z 04004KT 340V100 CAVOK 29/14 Q1016 NOSIG

Hora: 11:28 (09:28 UTC)

Pronòstic

L'informe es va fer fa 4 hores i 28 minuts, a les 05:00 UTC
Pronòstic vàlid del 19 a les 06 UTC al 20 a les 06 UTC
Vent 2 kt amb direcció variable
Visibilitat 10 km o més
sense núvols per sota de 1500 mi sense presència de cumulonimbus.
Probabilitat 40% :
Temporalment
l' 19 a les 12 UTC al 19 a les 18 UTC
Vent 12 kt del Nord-Est
Visibilitat 10 km o més
Escasses núvols a una alçada de 3000 ft, Cumulus congestus.
xàfecs de pluja

TAF: LZIB 190500Z 1906/2006 VRB02KT CAVOK PROB40 TEMPO 1912/1918 05012KT 9999 SHRA FEW030TCU

Observacions i pronòstics meteorològics de més de 4000 aeroports (METAR i TAF).

Les estacions disponibles són els punts grocs i vermells al mapa.

Posi el ratolí al punt desitjat per veure el nom de l'estació.

Feu clic per veure les observacions i els pronòstics meteorològics.

Per canviar el mapa: feu clic els botons verds amb una creu de color negre per apropar; al botó verd amb un guió per allunyar la imatge; o en les fletxes verdes per a mapes adjacents.


METAR-TAF: